createdAt,value
2023-05-25T00:01:02.444Z,50.31
2023-05-25T00:03:49.658Z,50.33
2023-05-25T00:06:37.520Z,50.36
2023-05-25T00:09:25.099Z,50.47
2023-05-25T00:12:11.245Z,50.58
2023-05-25T00:14:57.090Z,50.44
2023-05-25T00:17:42.994Z,50.58
2023-05-25T00:20:28.809Z,50.66
2023-05-25T00:23:14.697Z,50.80
2023-05-25T00:26:02.601Z,50.83
2023-05-25T00:28:48.632Z,50.85
2023-05-25T00:31:36.844Z,51.02
2023-05-25T00:34:23.093Z,51.05
2023-05-25T00:37:09.066Z,50.99
2023-05-25T00:39:55.397Z,50.91
2023-05-25T00:42:41.715Z,50.98
2023-05-25T00:45:27.737Z,51.02
2023-05-25T00:48:14.077Z,51.11
2023-05-25T00:51:00.277Z,51.13
2023-05-25T00:53:46.050Z,51.27
2023-05-25T00:56:35.205Z,51.34
2023-05-25T00:59:45.170Z,52.35
2023-05-25T01:02:31.439Z,51.39
2023-05-25T01:05:17.842Z,51.41
2023-05-25T01:08:05.614Z,51.39
2023-05-25T01:10:52.973Z,51.57
2023-05-25T01:13:39.358Z,51.55
2023-05-25T01:16:28.889Z,51.50
2023-05-25T01:19:15.872Z,51.57
2023-05-25T01:22:07.575Z,51.62
2023-05-25T01:25:02.407Z,51.91
2023-05-25T01:27:52.380Z,51.79
2023-05-25T01:30:42.283Z,51.63
2023-05-25T01:33:29.082Z,51.48
2023-05-25T01:36:15.216Z,51.38
2023-05-25T01:39:01.482Z,51.66
2023-05-25T01:41:47.586Z,51.72
2023-05-25T01:44:33.392Z,51.58
2023-05-25T01:47:29.448Z,51.73
2023-05-25T01:50:30.881Z,51.80
2023-05-25T01:53:19.915Z,51.87
2023-05-25T01:56:08.802Z,51.99
2023-05-25T01:58:56.789Z,51.83
2023-05-25T02:01:44.316Z,52.13
2023-05-25T02:04:31.599Z,52.07
2023-05-25T02:07:17.688Z,52.17
2023-05-25T02:10:04.804Z,52.11
2023-05-25T02:12:51.003Z,52.12
2023-05-25T02:15:37.516Z,52.11
2023-05-25T02:18:23.823Z,51.87
2023-05-25T02:21:13.149Z,52.42
2023-05-25T02:23:59.329Z,52.23
2023-05-25T02:26:45.134Z,52.71
2023-05-25T02:29:33.641Z,52.64
2023-05-25T02:32:21.300Z,52.64
2023-05-25T02:35:08.576Z,52.57
2023-05-25T02:37:54.864Z,52.53
2023-05-25T02:40:40.891Z,52.33
2023-05-25T02:43:26.787Z,52.63
2023-05-25T02:46:12.696Z,52.68
2023-05-25T02:48:59.528Z,52.52
2023-05-25T02:51:45.428Z,52.53
2023-05-25T02:54:31.450Z,52.42
2023-05-25T02:57:17.399Z,52.76
2023-05-25T03:00:05.109Z,52.71
2023-05-25T03:02:51.533Z,52.62
2023-05-25T03:05:38.815Z,52.80
2023-05-25T03:08:25.269Z,52.85
2023-05-25T03:11:11.352Z,53.04
2023-05-25T03:13:58.544Z,53.04
2023-05-25T03:16:46.200Z,52.90
2023-05-25T03:19:32.519Z,52.91
2023-05-25T03:22:18.896Z,53.19
2023-05-25T03:25:06.186Z,53.20
2023-05-25T03:27:54.139Z,53.27
2023-05-25T03:30:40.259Z,53.16
2023-05-25T03:33:27.592Z,53.19
2023-05-25T03:36:13.839Z,53.32
2023-05-25T03:39:01.199Z,53.07
2023-05-25T03:41:48.696Z,52.94
2023-05-25T03:44:35.694Z,52.97
2023-05-25T03:47:21.728Z,53.03
2023-05-25T03:50:08.434Z,52.79
2023-05-25T03:52:54.702Z,52.99
2023-05-25T03:55:43.230Z,53.11
2023-05-25T03:58:29.436Z,53.11
2023-05-25T04:01:16.810Z,53.15
2023-05-25T04:04:03.044Z,53.34
2023-05-25T04:06:49.219Z,53.10
2023-05-25T04:09:35.379Z,53.38
2023-05-25T04:12:22.343Z,53.42
2023-05-25T04:15:09.733Z,53.45
2023-05-25T04:18:07.898Z,53.40
2023-05-25T04:20:56.728Z,53.31
2023-05-25T04:23:43.263Z,53.12
2023-05-25T04:26:29.480Z,53.62
2023-05-25T04:29:16.261Z,53.68
2023-05-25T04:32:17.840Z,53.43
2023-05-25T04:35:26.995Z,53.54
2023-05-25T04:38:17.746Z,53.42
2023-05-25T04:41:04.193Z,53.36
2023-05-25T04:44:05.815Z,53.40
2023-05-25T04:47:01.453Z,53.38
2023-05-25T04:49:53.403Z,53.40
2023-05-25T04:52:39.104Z,53.53
2023-05-25T04:55:24.979Z,53.53
2023-05-25T05:00:56.887Z,53.51
2023-05-25T05:03:42.757Z,53.70
2023-05-25T05:06:28.972Z,53.74
2023-05-25T05:09:15.216Z,53.96
2023-05-25T05:12:03.362Z,53.32
2023-05-25T05:14:56.101Z,53.65
2023-05-25T05:17:42.451Z,53.61
2023-05-25T05:20:30.648Z,53.56
2023-05-25T05:23:16.649Z,53.62
2023-05-25T05:26:05.030Z,53.85
2023-05-25T05:28:52.747Z,53.75
2023-05-25T05:31:39.771Z,53.70
2023-05-25T05:34:27.368Z,53.69
2023-05-25T05:37:14.063Z,53.81
2023-05-25T05:40:27.021Z,54.32
2023-05-25T05:43:13.643Z,53.89
2023-05-25T05:45:59.754Z,53.69
2023-05-25T05:48:46.041Z,53.76
2023-05-25T05:51:33.059Z,53.86
2023-05-25T05:54:20.640Z,53.67
2023-05-25T05:57:06.837Z,53.71
2023-05-25T05:59:52.625Z,53.54
2023-05-25T06:02:41.361Z,53.43
2023-05-25T06:05:29.781Z,53.55
2023-05-25T06:08:17.152Z,53.56
2023-05-25T06:11:03.228Z,53.46
2023-05-25T06:13:49.525Z,53.57
2023-05-25T06:16:36.797Z,53.51
2023-05-25T06:19:23.087Z,53.30
2023-05-25T06:22:09.116Z,53.31
2023-05-25T06:24:55.250Z,53.29
2023-05-25T06:27:41.118Z,53.27
2023-05-25T06:30:27.608Z,53.25
2023-05-25T06:33:14.568Z,53.25
2023-05-25T06:36:02.166Z,53.09
2023-05-25T06:38:48.334Z,53.07
2023-05-25T06:41:34.854Z,53.08
2023-05-25T06:44:21.781Z,53.03
2023-05-25T06:47:07.713Z,52.91
2023-05-25T06:49:53.875Z,53.26
2023-05-25T06:52:39.764Z,52.83
2023-05-25T06:55:25.980Z,52.74
2023-05-25T06:58:11.973Z,52.55
2023-05-25T07:00:58.105Z,52.83
2023-05-25T07:03:44.280Z,52.82
2023-05-25T07:06:30.025Z,52.51
2023-05-25T07:09:15.975Z,52.64
2023-05-25T07:12:02.678Z,52.56
2023-05-25T07:14:48.967Z,52.81
2023-05-25T07:17:38.828Z,52.84
2023-05-25T07:20:25.277Z,52.90
2023-05-25T07:23:11.857Z,52.75
2023-05-25T07:25:57.903Z,52.64
2023-05-25T07:28:45.212Z,52.54
2023-05-25T07:31:39.769Z,52.41
2023-05-25T07:34:28.009Z,52.09
2023-05-25T07:37:13.979Z,52.22
2023-05-25T07:40:02.181Z,52.20
2023-05-25T07:42:48.363Z,52.19
2023-05-25T07:45:34.156Z,52.05
2023-05-25T07:48:20.059Z,52.04
2023-05-25T07:51:06.027Z,52.02
2023-05-25T07:53:54.169Z,51.94
2023-05-25T07:56:40.142Z,51.85
2023-05-25T07:59:26.433Z,51.80
2023-05-25T08:02:12.477Z,51.83
2023-05-25T08:04:59.802Z,51.59
2023-05-25T08:07:46.576Z,51.51
2023-05-25T08:10:32.556Z,51.35
2023-05-25T08:13:18.573Z,51.29
2023-05-25T08:16:04.552Z,51.12
2023-05-25T08:18:51.004Z,51.15
2023-05-25T08:21:37.786Z,51.19
2023-05-25T08:24:23.830Z,50.98
2023-05-25T08:27:09.692Z,50.91
2023-05-25T08:29:56.146Z,50.98
2023-05-25T08:32:42.095Z,51.06
2023-05-25T08:35:29.407Z,50.91
2023-05-25T08:38:15.680Z,50.85
2023-05-25T08:41:06.263Z,50.83
2023-05-25T08:43:52.541Z,50.83
2023-05-25T08:46:42.052Z,50.96
2023-05-25T08:49:28.235Z,50.84
2023-05-25T08:52:15.046Z,50.65
2023-05-25T08:55:04.884Z,50.72
2023-05-25T08:58:03.352Z,51.00
2023-05-25T09:00:55.832Z,51.04
2023-05-25T09:03:41.892Z,50.93
2023-05-25T09:06:28.451Z,51.07
2023-05-25T09:09:14.715Z,51.10
2023-05-25T09:12:00.723Z,50.95
2023-05-25T09:14:48.221Z,50.58
2023-05-25T09:17:38.061Z,50.60
2023-05-25T09:20:25.014Z,50.23
2023-05-25T09:23:11.021Z,50.07
2023-05-25T09:25:58.189Z,49.86
2023-05-25T09:28:48.518Z,49.72
2023-05-25T09:31:34.710Z,49.70
2023-05-25T09:34:20.862Z,49.62
2023-05-25T09:37:14.433Z,49.15
2023-05-25T09:40:00.506Z,49.49
2023-05-25T09:42:46.198Z,49.38
2023-05-25T09:45:32.276Z,49.26
2023-05-25T09:48:18.319Z,49.28
2023-05-25T09:51:04.677Z,49.18
2023-05-25T09:53:51.624Z,49.23
2023-05-25T09:56:38.754Z,49.22
2023-05-25T09:59:24.579Z,49.10
2023-05-25T10:02:11.146Z,49.21
2023-05-25T10:04:57.737Z,49.28
2023-05-25T10:07:47.953Z,49.17
2023-05-25T10:10:33.811Z,49.05
2023-05-25T10:13:23.362Z,48.78
2023-05-25T10:16:13.414Z,48.82
2023-05-25T10:19:02.322Z,48.80
2023-05-25T10:21:56.849Z,48.70
2023-05-25T10:24:46.051Z,48.54
2023-05-25T10:27:44.790Z,48.67
2023-05-25T10:30:31.040Z,48.59
2023-05-25T10:33:17.346Z,48.38
2023-05-25T10:36:10.831Z,48.42
2023-05-25T10:38:57.785Z,48.47
2023-05-25T10:41:44.174Z,48.39
2023-05-25T10:44:32.818Z,48.46
2023-05-25T10:47:19.214Z,48.39
2023-05-25T10:50:06.090Z,48.48
2023-05-25T10:53:03.099Z,48.46
2023-05-25T10:55:54.880Z,48.54
2023-05-25T10:58:43.813Z,48.78
2023-05-25T11:01:33.825Z,48.64
2023-05-25T11:04:19.986Z,48.72
2023-05-25T11:07:13.383Z,48.75
2023-05-25T11:09:59.613Z,48.75
2023-05-25T11:12:46.661Z,48.82
2023-05-25T11:15:32.769Z,48.46
2023-05-25T11:18:18.865Z,48.79
2023-05-25T11:21:22.263Z,48.85
2023-05-25T11:24:16.201Z,49.12
2023-05-25T11:27:01.967Z,49.58
2023-05-25T11:29:51.090Z,49.25
2023-05-25T11:32:39.890Z,49.18
2023-05-25T11:35:26.718Z,49.16
2023-05-25T11:38:12.807Z,49.11
2023-05-25T11:40:58.798Z,48.91
2023-05-25T11:43:51.743Z,48.95
2023-05-25T11:46:39.017Z,48.72
2023-05-25T11:49:26.059Z,48.50
2023-05-25T11:52:13.467Z,48.54
2023-05-25T11:54:59.484Z,48.47
2023-05-25T11:57:45.384Z,48.35
2023-05-25T12:00:31.672Z,48.11
2023-05-25T12:03:34.789Z,47.35
2023-05-25T12:06:28.997Z,47.29
2023-05-25T12:09:19.879Z,47.17
2023-05-25T12:12:06.714Z,46.90
2023-05-25T12:14:52.893Z,46.56
2023-05-25T12:17:42.646Z,46.33
2023-05-25T12:20:28.991Z,46.39
2023-05-25T12:23:15.273Z,46.22
2023-05-25T12:26:13.365Z,45.47
2023-05-25T12:29:01.255Z,45.52
2023-05-25T12:31:47.496Z,44.91
2023-05-25T12:34:35.508Z,44.54
2023-05-25T12:37:22.606Z,44.39
2023-05-25T12:40:21.615Z,43.79
2023-05-25T12:43:07.894Z,44.46
2023-05-25T12:45:55.181Z,44.28
2023-05-25T12:48:41.165Z,44.36
2023-05-25T12:51:38.314Z,44.04
2023-05-25T12:54:46.560Z,44.39
2023-05-25T13:01:02.362Z,44.76
2023-05-25T13:03:49.471Z,45.29
2023-05-25T13:06:36.089Z,45.50
2023-05-25T13:09:28.689Z,45.83
2023-05-25T13:12:14.876Z,46.24
2023-05-25T13:15:01.259Z,46.59
2023-05-25T13:17:48.379Z,46.96
2023-05-25T13:20:34.378Z,46.84
2023-05-25T13:23:20.416Z,47.05
2023-05-25T13:26:06.749Z,46.77
2023-05-25T13:29:28.433Z,47.25
2023-05-25T13:32:15.013Z,46.99
2023-05-25T13:35:08.078Z,47.09
2023-05-25T13:37:54.190Z,47.44
2023-05-25T13:40:40.527Z,47.85
2023-05-25T13:43:30.990Z,47.94
2023-05-25T13:46:32.866Z,48.17
2023-05-25T13:49:28.724Z,48.20
2023-05-25T13:52:14.711Z,48.20
2023-05-25T13:55:00.985Z,48.22
2023-05-25T13:57:47.188Z,48.25
2023-05-25T14:00:33.517Z,48.28
2023-05-25T14:03:19.633Z,48.12
2023-05-25T14:06:06.010Z,48.18
2023-05-25T14:08:51.754Z,48.06
2023-05-25T14:11:37.799Z,48.29
2023-05-25T14:14:31.346Z,48.39
2023-05-25T14:17:22.902Z,48.62
2023-05-25T14:20:09.833Z,48.60
2023-05-25T14:22:56.075Z,48.69
2023-05-25T14:25:42.790Z,48.59
2023-05-25T14:28:29.066Z,48.57
2023-05-25T14:31:15.111Z,48.70
2023-05-25T14:34:01.146Z,48.96
2023-05-25T14:36:47.248Z,49.12
2023-05-25T14:39:33.136Z,49.01
2023-05-25T14:42:19.408Z,49.28
2023-05-25T14:45:07.498Z,49.38
2023-05-25T14:48:04.000Z,49.47
2023-05-25T14:51:02.714Z,49.33
2023-05-25T14:53:48.498Z,49.38
2023-05-25T14:56:34.824Z,49.81
2023-05-25T14:59:21.162Z,49.72
2023-05-25T15:02:07.556Z,49.82
2023-05-25T15:04:54.716Z,49.63
2023-05-25T15:07:41.667Z,49.78
2023-05-25T15:10:28.073Z,49.78
2023-05-25T15:13:14.292Z,49.69
2023-05-25T15:16:00.514Z,50.00
2023-05-25T15:18:46.514Z,50.30
2023-05-25T15:21:32.780Z,50.24
2023-05-25T15:24:19.092Z,50.53
2023-05-25T15:27:06.593Z,50.60
2023-05-25T15:29:52.771Z,50.45
2023-05-25T15:32:38.577Z,50.57
2023-05-25T15:35:31.141Z,50.46
2023-05-25T15:38:22.078Z,50.63
2023-05-25T15:41:08.607Z,50.72
2023-05-25T15:43:58.396Z,50.75
2023-05-25T15:46:45.193Z,50.58
2023-05-25T15:49:32.247Z,50.68
2023-05-25T15:52:18.659Z,50.42
2023-05-25T15:55:04.920Z,50.79
2023-05-25T15:57:52.009Z,50.83
2023-05-25T16:00:38.068Z,50.62
2023-05-25T16:03:24.261Z,50.74
2023-05-25T16:06:11.277Z,50.64
2023-05-25T16:08:58.893Z,50.55
2023-05-25T16:11:44.850Z,50.75
2023-05-25T16:14:30.921Z,50.49
2023-05-25T16:17:17.053Z,50.51
2023-05-25T16:20:03.241Z,50.46
2023-05-25T16:22:49.336Z,50.59
2023-05-25T16:25:35.255Z,50.72
2023-05-25T16:28:21.485Z,50.66
2023-05-25T16:31:07.902Z,50.94
2023-05-25T16:33:54.215Z,50.98
2023-05-25T16:36:40.344Z,50.77
2023-05-25T16:39:26.325Z,50.85
2023-05-25T16:42:12.470Z,50.78
2023-05-25T16:45:00.070Z,51.30
2023-05-25T16:47:45.971Z,51.24
2023-05-25T16:50:32.222Z,51.39
2023-05-25T16:53:18.301Z,51.28
2023-05-25T16:56:04.301Z,51.60
2023-05-25T16:58:51.739Z,51.65
2023-05-25T17:01:37.933Z,51.52
2023-05-25T17:04:23.664Z,51.55
2023-05-25T17:07:29.582Z,51.76
2023-05-25T17:10:15.637Z,51.88
2023-05-25T17:13:02.281Z,51.86
2023-05-25T17:15:48.618Z,52.04
2023-05-25T17:18:35.050Z,51.95
2023-05-25T17:21:21.320Z,52.22
2023-05-25T17:24:08.032Z,52.14
2023-05-25T17:26:54.193Z,52.13
2023-05-25T17:29:42.107Z,52.18
2023-05-25T17:32:28.239Z,52.31
2023-05-25T17:35:14.479Z,52.32
2023-05-25T17:38:00.687Z,52.27
2023-05-25T17:40:48.056Z,52.14
2023-05-25T17:43:34.162Z,52.28
2023-05-25T17:46:19.967Z,52.28
2023-05-25T17:49:39.504Z,52.51
2023-05-25T17:52:26.344Z,52.33
2023-05-25T17:55:12.398Z,52.51
2023-05-25T17:57:58.306Z,52.75
2023-05-25T18:00:44.239Z,52.95
2023-05-25T18:03:30.154Z,52.89
2023-05-25T18:06:16.128Z,53.03
2023-05-25T18:09:02.265Z,53.26
2023-05-25T18:11:48.212Z,53.30
2023-05-25T18:14:37.601Z,53.41
2023-05-25T18:17:23.758Z,53.52
2023-05-25T18:20:10.281Z,53.66
2023-05-25T18:22:56.446Z,53.75
2023-05-25T18:25:42.756Z,53.59
2023-05-25T18:28:30.480Z,53.74
2023-05-25T18:31:17.451Z,53.76
2023-05-25T18:34:03.924Z,53.75
2023-05-25T18:36:50.348Z,53.90
2023-05-25T18:39:36.225Z,54.04
2023-05-25T18:42:22.098Z,54.08
2023-05-25T18:45:08.265Z,54.02
2023-05-25T18:47:54.502Z,54.10
2023-05-25T18:50:42.198Z,54.26
2023-05-25T18:53:28.437Z,54.25
2023-05-25T18:56:14.493Z,54.26
2023-05-25T18:59:00.848Z,54.28
2023-05-25T19:01:46.943Z,54.42
2023-05-25T19:04:32.784Z,54.14
2023-05-25T19:07:18.883Z,54.38
2023-05-25T19:10:05.378Z,54.41
2023-05-25T19:12:51.392Z,54.21
2023-05-25T19:15:37.938Z,54.47
2023-05-25T19:18:23.802Z,54.39
2023-05-25T19:21:10.041Z,54.45
2023-05-25T19:23:57.593Z,54.60
2023-05-25T19:26:44.019Z,54.87
2023-05-25T19:29:30.015Z,54.66
2023-05-25T19:32:17.315Z,54.60
2023-05-25T19:35:03.269Z,54.81
2023-05-25T19:37:49.583Z,54.81
2023-05-25T19:40:35.737Z,54.68
2023-05-25T19:43:21.919Z,54.89
2023-05-25T19:46:08.451Z,54.89
2023-05-25T19:48:55.161Z,54.79
2023-05-25T19:51:41.374Z,55.05
2023-05-25T19:54:27.563Z,55.04
2023-05-25T19:57:13.821Z,55.05
2023-05-25T20:00:02.592Z,55.33
2023-05-25T20:02:57.596Z,55.03
2023-05-25T20:05:44.069Z,55.17
2023-05-25T20:08:31.597Z,55.15
2023-05-25T20:11:17.818Z,55.34
2023-05-25T20:14:04.464Z,55.40
2023-05-25T20:16:52.426Z,55.25
2023-05-25T20:19:38.419Z,55.27
2023-05-25T20:22:24.832Z,55.30
2023-05-25T20:25:10.919Z,55.25
2023-05-25T20:27:57.276Z,55.39
2023-05-25T20:30:44.531Z,55.39
2023-05-25T20:33:30.729Z,55.38
2023-05-25T20:36:17.305Z,55.38
2023-05-25T20:39:03.769Z,55.34
2023-05-25T20:41:50.026Z,55.19
2023-05-25T20:44:36.435Z,55.43
2023-05-25T20:47:22.855Z,55.53
2023-05-25T20:50:09.625Z,55.53
2023-05-25T20:52:56.437Z,55.42
2023-05-25T20:55:43.023Z,55.35
2023-05-25T20:58:28.923Z,55.23
2023-05-25T21:01:16.056Z,55.10
2023-05-25T21:04:02.542Z,55.32
2023-05-25T21:06:49.897Z,55.53
2023-05-25T21:09:36.220Z,55.75
2023-05-25T21:12:22.623Z,55.89
2023-05-25T21:15:08.703Z,55.93
2023-05-25T21:17:55.034Z,56.04
2023-05-25T21:20:41.385Z,55.99
2023-05-25T21:23:28.864Z,55.79
2023-05-25T21:26:14.949Z,56.18
2023-05-25T21:29:01.278Z,56.07
2023-05-25T21:31:47.712Z,56.31
2023-05-25T21:34:33.692Z,56.11
2023-05-25T21:37:19.859Z,56.06
2023-05-25T21:40:07.003Z,56.54
2023-05-25T21:42:56.023Z,56.04
2023-05-25T21:45:42.068Z,56.06
2023-05-25T21:48:27.960Z,56.11
2023-05-25T21:51:13.846Z,56.34
2023-05-25T21:54:00.051Z,56.32
2023-05-25T21:56:46.396Z,56.56
2023-05-25T21:59:32.320Z,56.65
2023-05-25T22:02:18.113Z,56.73
2023-05-25T22:05:04.288Z,56.90
2023-05-25T22:07:50.165Z,56.80
2023-05-25T22:10:36.756Z,56.77
2023-05-25T22:13:22.463Z,56.68
2023-05-25T22:16:08.241Z,56.73
2023-05-25T22:18:54.045Z,56.72
2023-05-25T22:21:40.008Z,57.04
2023-05-25T22:24:25.672Z,56.84
2023-05-25T22:27:11.494Z,56.90
2023-05-25T22:29:57.650Z,56.98
2023-05-25T22:32:43.515Z,56.93
2023-05-25T22:35:29.740Z,56.97
2023-05-25T22:38:15.714Z,56.82
2023-05-25T22:41:01.586Z,56.80
2023-05-25T22:43:47.369Z,56.98
2023-05-25T22:46:33.111Z,56.90
2023-05-25T22:49:18.815Z,56.81
2023-05-25T22:52:04.803Z,56.73
2023-05-25T22:54:50.742Z,56.83
2023-05-25T22:57:36.574Z,57.00
2023-05-25T23:00:22.490Z,57.36
2023-05-25T23:03:08.441Z,57.02
2023-05-25T23:05:54.671Z,56.86
2023-05-25T23:08:40.449Z,57.13
2023-05-25T23:11:27.278Z,57.06
2023-05-25T23:14:13.157Z,57.15
2023-05-25T23:16:59.274Z,57.17
2023-05-25T23:19:45.507Z,57.20
2023-05-25T23:22:31.612Z,57.19
2023-05-25T23:25:17.374Z,57.30
2023-05-25T23:28:03.369Z,57.17
2023-05-25T23:30:49.278Z,57.21
2023-05-25T23:33:35.610Z,57.09
2023-05-25T23:36:21.947Z,57.04
2023-05-25T23:39:08.215Z,57.22
2023-05-25T23:41:54.120Z,57.04
2023-05-25T23:44:39.979Z,57.16
2023-05-25T23:47:26.234Z,57.11
2023-05-25T23:50:12.202Z,57.19
2023-05-25T23:52:57.894Z,57.22
2023-05-25T23:55:44.004Z,57.24
2023-05-25T23:58:30.243Z,57.07
